Estación Meteorológica Peña el Pijo (Robertgarden) [ 01/30/23 15:13:10 CET ]

Fecha Hora Presion(HPa) Temp (°C) Humedad % Rocio (°C) Viento ( m/s) Direccion Lluvia 1Hora(mm) Lluvia 24H(mm) LLuvia Total(mm)
2012-Sep-22 01:01:14 1011.900 14.6 79 11.0         178.19
2012-Sep-22 02:01:14 1011.700 13.9 82 10.9         178.19
2012-Sep-22 03:01:41 1011.500 13.3 83 10.4         178.19
2012-Sep-22 04:01:46 1011.300 12.8 84 10.1         178.19
2012-Sep-22 05:01:41 1010.800 12.5 85 10.0         178.19
2012-Sep-22 06:01:46 1010.700 12.3 85 9.8         178.19
2012-Sep-22 07:01:13 1010.600 12.5 86 10.2         178.19
2012-Sep-22 08:01:16 1011.100 12.0 87 9.9         178.19
2012-Sep-22 09:01:17 1011.400 13.5 88 11.5         178.19
2012-Sep-22 10:01:13 1011.300 20.7 65 13.9         178.19
2012-Sep-22 11:01:11 1011.400 26.0 54 16.0         178.19
2012-Sep-22 12:01:15 1011.000 27.6 37 11.5         178.19
2012-Sep-22 13:01:12 1010.500 31.3 32 12.6         178.19
2012-Sep-22 14:01:16 1010.200 33.6 24 10.0         178.19
2012-Sep-22 15:01:16 1009.600 34.6 20 8.4         178.19
2012-Sep-22 16:01:11 1009.600 34.9 18 6.7         178.19
2012-Sep-22 17:01:16 1009.600 34.1 15 3.1 0.5 WNW     178.19
2012-Sep-22 18:01:12 1009.600 32.4 18 4.7         178.19
2012-Sep-22 19:01:16 1009.800 28.9 20 3.7 0.5 S     178.19
2012-Sep-22 20:01:13 1010.100 25.6 27 5.0         178.19
2012-Sep-22 21:01:11 1010.800 20.8 37 5.5         178.19
2012-Sep-22 22:01:13 1011.600 17.5 46 5.7         178.19
2012-Sep-22 23:01:12 1011.900 15.6 50 5.2         178.19

Temperatura Máxima:34°    Temperatura Mínima:12°
Presión Máxima:1011.900 Hpa    Presión Mínima:1009.600 Hpa


Volver